createdAt,value
2019-06-27T00:00:27.582Z,96.69
2019-06-27T00:01:27.584Z,97.81
2019-06-27T00:02:27.585Z,97.23
2019-06-27T00:03:27.590Z,97.91
2019-06-27T00:04:27.595Z,97.71
2019-06-27T00:05:27.600Z,97.61
2019-06-27T00:06:27.616Z,98.00
2019-06-27T00:07:27.605Z,97.23
2019-06-27T00:08:27.621Z,97.71
2019-06-27T00:09:27.619Z,97.52
2019-06-27T00:10:27.626Z,97.91
2019-06-27T00:11:27.624Z,97.81
2019-06-27T00:12:27.643Z,97.91
2019-06-27T00:13:27.636Z,97.91
2019-06-27T00:14:28.030Z,97.23
2019-06-27T00:15:27.639Z,97.71
2019-06-27T00:16:27.650Z,98.00
2019-06-27T00:17:27.650Z,97.33
2019-06-27T00:18:27.654Z,97.71
2019-06-27T00:19:27.660Z,97.42
2019-06-27T00:20:27.659Z,97.42
2019-06-27T00:21:27.709Z,97.61
2019-06-27T00:22:27.672Z,97.42
2019-06-27T00:23:27.697Z,97.91
2019-06-27T00:24:27.680Z,97.61
2019-06-27T00:25:27.683Z,97.61
2019-06-27T00:26:27.686Z,97.61
2019-06-27T00:27:27.689Z,97.91
2019-06-27T00:28:27.694Z,97.81
2019-06-27T00:29:27.701Z,97.76
2019-06-27T00:30:27.702Z,97.42
2019-06-27T00:31:27.705Z,98.05
2019-06-27T00:32:27.712Z,97.57
2019-06-27T00:33:27.721Z,97.67
2019-06-27T00:34:27.718Z,97.76
2019-06-27T00:35:27.724Z,97.76
2019-06-27T00:36:27.743Z,97.47
2019-06-27T00:37:27.729Z,97.38
2019-06-27T00:38:27.734Z,97.86
2019-06-27T00:39:27.741Z,97.86
2019-06-27T00:40:27.742Z,97.57
2019-06-27T00:41:27.746Z,97.91
2019-06-27T00:42:27.750Z,97.81
2019-06-27T00:43:27.756Z,97.42
2019-06-27T00:44:27.757Z,97.03
2019-06-27T00:45:28.493Z,97.42
2019-06-27T00:46:27.773Z,97.03
2019-06-27T00:47:27.765Z,97.33
2019-06-27T00:48:27.771Z,97.08
2019-06-27T00:49:27.778Z,97.33
2019-06-27T00:50:27.780Z,96.94
2019-06-27T00:51:27.787Z,97.13
2019-06-27T00:52:27.787Z,97.23
2019-06-27T00:53:27.793Z,97.28
2019-06-27T00:54:27.793Z,97.03
2019-06-27T00:55:27.801Z,97.03
2019-06-27T00:56:27.805Z,96.94
2019-06-27T00:57:27.810Z,97.23
2019-06-27T00:58:27.816Z,97.42
2019-06-27T00:59:27.824Z,97.23
2019-06-27T01:00:27.820Z,97.23
2019-06-27T01:01:27.823Z,97.23
2019-06-27T01:02:27.830Z,97.08
2019-06-27T01:03:27.832Z,97.08
2019-06-27T01:04:27.833Z,96.80
2019-06-27T01:05:27.838Z,96.99
2019-06-27T01:06:27.919Z,96.99
2019-06-27T01:07:27.844Z,97.38
2019-06-27T01:08:27.845Z,97.18
2019-06-27T01:09:27.854Z,96.89
2019-06-27T01:10:27.851Z,97.28
2019-06-27T01:11:27.897Z,96.41
2019-06-27T01:12:27.865Z,96.50
2019-06-27T01:13:27.862Z,96.41
2019-06-27T01:14:27.869Z,95.92
2019-06-27T01:15:27.872Z,96.12
2019-06-27T01:16:27.876Z,95.87
2019-06-27T01:17:27.882Z,96.36
2019-06-27T01:18:27.888Z,97.42
2019-06-27T01:19:27.887Z,96.26
2019-06-27T01:20:27.887Z,96.46
2019-06-27T01:21:27.909Z,96.75
2019-06-27T01:22:27.903Z,96.84
2019-06-27T01:23:27.918Z,97.23
2019-06-27T01:24:27.916Z,97.13
2019-06-27T01:25:27.909Z,97.23
2019-06-27T01:26:27.910Z,96.94
2019-06-27T01:27:30.232Z,97.33
2019-06-27T01:28:27.960Z,96.84
2019-06-27T01:29:27.923Z,97.52
2019-06-27T01:30:27.925Z,97.52
2019-06-27T01:31:27.929Z,97.13
2019-06-27T01:32:27.936Z,96.94
2019-06-27T01:33:27.935Z,96.36
2019-06-27T01:34:27.940Z,96.65
2019-06-27T01:35:27.943Z,96.17
2019-06-27T01:36:27.945Z,96.84
2019-06-27T01:37:27.953Z,97.04
2019-06-27T01:38:27.955Z,97.04
2019-06-27T01:39:27.958Z,97.42
2019-06-27T01:40:27.961Z,95.29
2019-06-27T01:41:27.965Z,93.26
2019-06-27T01:42:27.985Z,91.14
2019-06-27T01:43:27.969Z,87.03
2019-06-27T01:44:27.972Z,84.80
2019-06-27T01:45:27.977Z,84.22
2019-06-27T01:46:27.983Z,82.14
2019-06-27T01:47:27.984Z,80.46
2019-06-27T01:48:27.986Z,80.65
2019-06-27T01:49:27.990Z,78.91
2019-06-27T01:50:27.990Z,76.97
2019-06-27T01:51:27.997Z,76.43
2019-06-27T01:52:28.010Z,77.30
2019-06-27T01:53:28.003Z,76.62
2019-06-27T01:54:28.007Z,74.59
2019-06-27T01:55:28.010Z,73.97
2019-06-27T01:56:28.014Z,74.30
2019-06-27T01:57:28.017Z,73.97
2019-06-27T01:58:28.019Z,73.20
2019-06-27T01:59:28.027Z,73.33
2019-06-27T02:00:28.029Z,72.75
2019-06-27T02:01:28.029Z,72.72
2019-06-27T02:02:28.033Z,72.81
2019-06-27T02:03:28.037Z,73.97
2019-06-27T02:04:28.039Z,73.82
2019-06-27T02:05:28.042Z,72.81
2019-06-27T02:06:28.045Z,72.91
2019-06-27T02:07:28.049Z,73.01
2019-06-27T02:08:28.066Z,73.20
2019-06-27T02:09:28.056Z,72.91
2019-06-27T02:10:28.058Z,72.75
2019-06-27T02:11:28.061Z,72.52
2019-06-27T02:12:28.069Z,72.72
2019-06-27T02:13:28.067Z,72.91
2019-06-27T02:14:28.071Z,73.10
2019-06-27T02:15:28.074Z,72.81
2019-06-27T02:16:28.080Z,71.56
2019-06-27T02:17:28.084Z,71.84
2019-06-27T02:18:28.088Z,72.72
2019-06-27T02:19:28.085Z,72.75
2019-06-27T02:20:28.103Z,72.72
2019-06-27T02:21:28.098Z,71.84
2019-06-27T02:22:28.098Z,72.72
2019-06-27T02:23:28.100Z,72.81
2019-06-27T02:24:28.107Z,69.82
2019-06-27T02:25:28.108Z,68.95
2019-06-27T02:26:28.111Z,69.24
2019-06-27T02:27:28.116Z,69.24
2019-06-27T02:28:28.114Z,70.01
2019-06-27T02:29:28.123Z,69.82
2019-06-27T02:30:28.119Z,69.53
2019-06-27T02:31:28.130Z,70.10
2019-06-27T02:32:28.135Z,69.82
2019-06-27T02:33:28.134Z,69.72
2019-06-27T02:34:28.146Z,69.17
2019-06-27T02:35:28.162Z,68.56
2019-06-27T02:36:28.305Z,66.91
2019-06-27T02:37:28.146Z,66.63
2019-06-27T02:38:28.153Z,67.59
2019-06-27T02:39:28.151Z,67.69
2019-06-27T02:40:28.154Z,66.53
2019-06-27T02:41:28.159Z,67.79
2019-06-27T02:42:29.631Z,67.98
2019-06-27T02:43:28.165Z,67.49
2019-06-27T02:44:28.170Z,66.53
2019-06-27T02:45:28.172Z,65.85
2019-06-27T02:46:28.179Z,65.37
2019-06-27T02:47:28.177Z,66.05
2019-06-27T02:48:28.244Z,66.24
2019-06-27T02:49:28.185Z,64.66
2019-06-27T02:50:28.229Z,63.98
2019-06-27T02:51:28.190Z,63.69
2019-06-27T02:52:28.193Z,64.14
2019-06-27T02:53:28.197Z,62.70
2019-06-27T02:54:28.207Z,63.85
2019-06-27T02:55:28.202Z,65.50
2019-06-27T02:56:28.206Z,66.17
2019-06-27T02:57:28.210Z,67.62
2019-06-27T02:58:31.665Z,67.62
2019-06-27T02:59:28.216Z,67.62
2019-06-27T03:00:28.226Z,66.08
2019-06-27T03:01:28.220Z,62.98
2019-06-27T03:02:28.222Z,63.66
2019-06-27T03:03:28.223Z,63.85
2019-06-27T03:04:28.228Z,63.37
2019-06-27T03:05:28.239Z,64.24
2019-06-27T03:06:28.232Z,64.01
2019-06-27T03:07:28.236Z,64.34
2019-06-27T03:08:28.239Z,64.31
2019-06-27T03:09:28.248Z,64.05
2019-06-27T03:10:28.242Z,63.82
2019-06-27T03:11:28.248Z,63.43
2019-06-27T03:12:28.251Z,62.95
2019-06-27T03:13:30.080Z,62.76
2019-06-27T03:14:28.255Z,62.37
2019-06-27T03:15:28.258Z,61.80
2019-06-27T03:16:28.258Z,61.60
2019-06-27T03:17:28.264Z,61.89
2019-06-27T03:18:35.017Z,62.86
2019-06-27T03:19:28.702Z,62.47
2019-06-27T03:20:28.270Z,61.51
2019-06-27T03:21:28.285Z,61.80
2019-06-27T03:22:28.278Z,61.60
2019-06-27T03:23:28.278Z,62.08
2019-06-27T03:24:28.284Z,61.38
2019-06-27T03:25:28.285Z,62.15
2019-06-27T03:26:28.291Z,62.82
2019-06-27T03:27:28.287Z,62.63
2019-06-27T03:28:45.112Z,62.54
2019-06-27T03:29:28.299Z,63.60
2019-06-27T03:30:28.303Z,64.18
2019-06-27T03:31:28.309Z,63.50
2019-06-27T03:32:28.319Z,64.37
2019-06-27T03:33:28.312Z,65.14
2019-06-27T03:34:28.306Z,65.91
2019-06-27T03:35:28.308Z,66.97
2019-06-27T03:36:28.311Z,67.36
2019-06-27T03:37:28.316Z,69.64
2019-06-27T03:38:28.374Z,69.58
2019-06-27T03:39:28.320Z,69.87
2019-06-27T03:40:28.322Z,73.35
2019-06-27T03:41:28.323Z,75.05
2019-06-27T03:42:28.326Z,79.33
2019-06-27T03:43:28.327Z,82.90
2019-06-27T03:44:28.327Z,86.52
2019-06-27T03:45:28.328Z,87.10
2019-06-27T03:46:28.332Z,85.27
2019-06-27T03:47:28.336Z,84.69
2019-06-27T03:48:28.335Z,85.27
2019-06-27T03:49:28.340Z,84.41
2019-06-27T03:50:29.134Z,84.01
2019-06-27T03:51:28.348Z,81.80
2019-06-27T03:52:28.347Z,82.57
2019-06-27T03:53:28.346Z,84.21
2019-06-27T03:54:28.348Z,85.08
2019-06-27T03:55:28.355Z,88.65
2019-06-27T03:56:28.354Z,91.35
2019-06-27T03:57:28.367Z,92.02
2019-06-27T03:58:28.357Z,92.99
2019-06-27T03:59:28.364Z,94.24
2019-06-27T04:00:28.365Z,95.21
2019-06-27T04:01:28.365Z,95.40
2019-06-27T04:02:28.364Z,95.31
2019-06-27T04:03:28.377Z,96.17
2019-06-27T04:04:28.367Z,96.66
2019-06-27T04:05:28.392Z,96.61
2019-06-27T04:06:28.447Z,97.09
2019-06-27T04:07:28.398Z,96.61
2019-06-27T04:08:28.390Z,96.85
2019-06-27T04:09:28.383Z,97.14
2019-06-27T04:10:28.381Z,95.98
2019-06-27T04:11:28.394Z,97.24
2019-06-27T04:12:28.396Z,97.04
2019-06-27T04:13:28.392Z,97.33
2019-06-27T04:14:28.390Z,96.27
2019-06-27T04:15:28.390Z,96.37
2019-06-27T04:16:28.397Z,96.75
2019-06-27T04:17:28.395Z,96.17
2019-06-27T04:18:28.397Z,96.46
2019-06-27T04:19:28.400Z,95.59
2019-06-27T04:20:28.401Z,95.89
2019-06-27T04:21:28.407Z,96.08
2019-06-27T04:22:28.403Z,95.31
2019-06-27T04:23:28.405Z,95.31
2019-06-27T04:24:28.451Z,95.40
2019-06-27T04:25:28.409Z,94.39
2019-06-27T04:26:28.449Z,94.39
2019-06-27T04:27:28.415Z,93.72
2019-06-27T04:28:28.414Z,94.20
2019-06-27T04:29:34.187Z,93.62
2019-06-27T04:30:28.425Z,92.47
2019-06-27T04:31:28.420Z,92.76
2019-06-27T04:32:28.466Z,92.76
2019-06-27T04:33:28.425Z,92.66
2019-06-27T04:34:28.430Z,91.79
2019-06-27T04:35:28.453Z,92.47
2019-06-27T04:36:28.428Z,91.99
2019-06-27T04:37:28.431Z,91.69
2019-06-27T04:38:28.432Z,91.50
2019-06-27T04:39:28.432Z,91.31
2019-06-27T04:40:28.442Z,91.89
2019-06-27T04:41:28.439Z,90.83
2019-06-27T04:42:28.443Z,91.12
2019-06-27T04:43:28.439Z,91.36
2019-06-27T04:44:28.439Z,89.86
2019-06-27T04:45:28.442Z,89.39
2019-06-27T04:46:28.449Z,88.71
2019-06-27T04:47:28.454Z,87.74
2019-06-27T04:48:28.456Z,87.65
2019-06-27T04:49:28.447Z,86.21
2019-06-27T04:50:28.458Z,85.10
2019-06-27T04:51:28.454Z,83.66
2019-06-27T04:52:28.489Z,82.79
2019-06-27T04:53:28.456Z,82.31
2019-06-27T04:54:28.461Z,82.41
2019-06-27T04:55:28.464Z,82.50
2019-06-27T04:56:28.452Z,82.70
2019-06-27T04:57:28.463Z,83.08
2019-06-27T04:58:28.459Z,83.66
2019-06-27T04:59:28.462Z,83.08
2019-06-27T05:00:28.464Z,82.60
2019-06-27T05:01:28.466Z,82.98
2019-06-27T05:02:30.803Z,83.75
2019-06-27T05:03:28.473Z,83.37
2019-06-27T05:04:28.469Z,84.43
2019-06-27T05:05:28.470Z,84.43
2019-06-27T05:06:28.480Z,84.56
2019-06-27T05:07:28.472Z,85.34
2019-06-27T05:08:28.479Z,85.72
2019-06-27T05:09:28.474Z,85.82
2019-06-27T05:10:28.478Z,87.17
2019-06-27T05:11:28.476Z,88.75
2019-06-27T05:12:28.480Z,89.62
2019-06-27T05:13:28.513Z,89.86
2019-06-27T05:14:28.480Z,89.86
2019-06-27T05:15:28.484Z,89.76
2019-06-27T05:16:28.486Z,90.88
2019-06-27T05:17:28.486Z,90.72
2019-06-27T05:18:28.489Z,92.75
2019-06-27T05:19:28.490Z,92.94
2019-06-27T05:20:28.496Z,93.27
2019-06-27T05:21:28.497Z,93.37
2019-06-27T05:22:28.503Z,92.50
2019-06-27T05:23:28.499Z,92.55
2019-06-27T05:24:28.503Z,93.13
2019-06-27T05:25:29.688Z,92.84
2019-06-27T05:26:28.507Z,92.84
2019-06-27T05:27:28.507Z,92.74
2019-06-27T05:28:28.510Z,92.41
2019-06-27T05:29:28.512Z,92.60
2019-06-27T05:30:28.515Z,92.17
2019-06-27T05:31:28.516Z,92.85
2019-06-27T05:32:28.521Z,92.94
2019-06-27T05:33:28.520Z,93.23
2019-06-27T05:34:28.537Z,94.15
2019-06-27T05:35:28.527Z,92.89
2019-06-27T05:36:28.527Z,93.66
2019-06-27T05:37:28.528Z,93.47
2019-06-27T05:38:28.533Z,93.47
2019-06-27T05:39:28.531Z,93.57
2019-06-27T05:40:28.534Z,93.66
2019-06-27T05:41:28.538Z,93.47
2019-06-27T05:42:28.537Z,93.95
2019-06-27T05:43:28.538Z,93.62
2019-06-27T05:44:28.544Z,93.04
2019-06-27T05:45:28.546Z,93.52
2019-06-27T05:46:28.580Z,93.19
2019-06-27T05:47:28.551Z,93.86
2019-06-27T05:48:28.552Z,93.28
2019-06-27T05:49:28.563Z,93.19
2019-06-27T05:50:28.562Z,93.43
2019-06-27T05:51:28.557Z,94.10
2019-06-27T05:52:28.626Z,94.00
2019-06-27T05:53:28.928Z,93.62
2019-06-27T05:54:28.584Z,94.29
2019-06-27T05:55:28.575Z,94.63
2019-06-27T05:56:28.577Z,94.43
2019-06-27T05:57:28.573Z,93.90
2019-06-27T05:58:28.585Z,93.04
2019-06-27T05:59:28.577Z,93.13
2019-06-27T06:00:29.646Z,93.42
2019-06-27T06:01:28.583Z,93.71
2019-06-27T06:02:28.593Z,93.47
2019-06-27T06:03:28.586Z,93.66
2019-06-27T06:04:28.588Z,93.76
2019-06-27T06:05:28.596Z,94.10
2019-06-27T06:06:28.592Z,93.81
2019-06-27T06:07:28.599Z,94.20
2019-06-27T06:08:28.606Z,94.29
2019-06-27T06:09:28.600Z,94.29
2019-06-27T06:10:28.605Z,94.34
2019-06-27T06:11:28.598Z,94.10
2019-06-27T06:12:28.605Z,94.00
2019-06-27T06:13:28.613Z,94.63
2019-06-27T06:14:28.615Z,94.92
2019-06-27T06:15:28.615Z,94.77
2019-06-27T06:16:28.618Z,93.56
2019-06-27T06:17:28.625Z,92.69
2019-06-27T06:18:28.619Z,90.95
2019-06-27T06:19:28.622Z,90.71
2019-06-27T06:20:28.628Z,89.31
2019-06-27T06:21:28.657Z,89.61
2019-06-27T06:22:28.630Z,90.37
2019-06-27T06:23:28.633Z,91.20
2019-06-27T06:24:29.361Z,91.78
2019-06-27T06:25:28.645Z,92.89
2019-06-27T06:26:28.648Z,93.18
2019-06-27T06:27:28.648Z,93.57
2019-06-27T06:28:28.655Z,93.95
2019-06-27T06:29:28.678Z,93.18
2019-06-27T06:30:43.237Z,92.02
2019-06-27T06:31:28.664Z,92.02
2019-06-27T06:32:28.655Z,89.86
2019-06-27T06:33:28.677Z,89.37
2019-06-27T06:34:28.664Z,90.34
2019-06-27T06:35:28.674Z,90.44
2019-06-27T06:36:28.666Z,90.34
2019-06-27T06:37:28.669Z,90.44
2019-06-27T06:38:28.672Z,89.76
2019-06-27T06:39:28.675Z,89.57
2019-06-27T06:40:28.689Z,91.11
2019-06-27T06:41:28.678Z,90.92
2019-06-27T06:42:28.683Z,91.20
2019-06-27T06:43:28.683Z,90.87
2019-06-27T06:44:28.683Z,89.47
2019-06-27T06:45:28.689Z,89.13
2019-06-27T06:46:28.711Z,88.75
2019-06-27T06:47:28.690Z,88.26
2019-06-27T06:48:28.699Z,85.91
2019-06-27T06:49:28.709Z,85.71
2019-06-27T06:50:28.697Z,86.48
2019-06-27T06:51:28.705Z,86.48
2019-06-27T06:52:28.704Z,85.37
2019-06-27T06:53:28.708Z,84.55
2019-06-27T06:54:28.710Z,82.76
2019-06-27T06:55:28.744Z,82.76
2019-06-27T06:56:28.716Z,80.83
2019-06-27T06:57:28.716Z,80.26
2019-06-27T06:58:28.716Z,78.42
2019-06-27T06:59:28.719Z,78.36
2019-06-27T07:00:28.721Z,77.21
2019-06-27T07:01:28.729Z,75.47
2019-06-27T07:02:28.726Z,74.37
2019-06-27T07:03:28.729Z,73.60
2019-06-27T07:04:28.731Z,73.83
2019-06-27T07:05:28.736Z,72.25
2019-06-27T07:06:28.773Z,71.58
2019-06-27T07:07:28.758Z,74.76
2019-06-27T07:08:28.772Z,77.81
2019-06-27T07:09:28.756Z,79.49
2019-06-27T07:10:28.783Z,80.54
2019-06-27T07:11:28.920Z,81.09
2019-06-27T07:12:28.751Z,82.67
2019-06-27T07:13:28.834Z,82.72
2019-06-27T07:14:28.757Z,80.69
2019-06-27T07:15:28.759Z,81.41
2019-06-27T07:16:28.759Z,82.48
2019-06-27T07:17:28.774Z,83.63
2019-06-27T07:18:28.773Z,84.21
2019-06-27T07:19:28.823Z,84.31
2019-06-27T07:20:28.776Z,80.93
2019-06-27T07:21:28.781Z,80.26
2019-06-27T07:22:28.781Z,80.35
2019-06-27T07:23:28.803Z,80.35
2019-06-27T07:24:28.781Z,78.91
2019-06-27T07:25:28.773Z,76.50
2019-06-27T07:26:28.783Z,76.20
2019-06-27T07:27:28.786Z,76.78
2019-06-27T07:28:28.787Z,79.00
2019-06-27T07:29:28.787Z,81.37
2019-06-27T07:30:28.804Z,83.78
2019-06-27T07:31:28.791Z,85.13
2019-06-27T07:32:28.789Z,86.39
2019-06-27T07:33:28.863Z,86.29
2019-06-27T07:34:28.805Z,86.68
2019-06-27T07:35:28.812Z,86.43
2019-06-27T07:36:28.799Z,86.48
2019-06-27T07:37:28.800Z,85.94
2019-06-27T07:38:28.812Z,84.46
2019-06-27T07:39:28.823Z,83.73
2019-06-27T07:40:28.807Z,82.67
2019-06-27T07:41:28.813Z,81.90
2019-06-27T07:42:28.823Z,83.53
2019-06-27T07:43:28.816Z,84.69
2019-06-27T07:44:28.821Z,83.63
2019-06-27T07:45:28.826Z,81.99
2019-06-27T07:46:28.855Z,81.70
2019-06-27T07:47:28.829Z,82.57
2019-06-27T07:48:28.846Z,82.96
2019-06-27T07:49:28.827Z,83.34
2019-06-27T07:50:28.870Z,80.74
2019-06-27T07:51:28.833Z,80.54
2019-06-27T07:52:28.852Z,79.49
2019-06-27T07:53:28.844Z,78.81
2019-06-27T07:54:28.833Z,77.40
2019-06-27T07:55:28.839Z,77.01
2019-06-27T07:56:28.842Z,76.63
2019-06-27T07:57:28.845Z,73.83
2019-06-27T07:58:28.845Z,71.03
2019-06-27T07:59:28.851Z,69.10
2019-06-27T08:00:28.847Z,66.56
2019-06-27T08:01:35.243Z,66.78
2019-06-27T08:02:28.869Z,67.36
2019-06-27T08:03:28.855Z,67.94
2019-06-27T08:04:28.879Z,65.59
2019-06-27T08:05:28.866Z,64.34
2019-06-27T08:06:28.863Z,64.76
2019-06-27T08:07:28.867Z,63.85
2019-06-27T08:08:28.923Z,63.21
2019-06-27T08:09:28.888Z,63.60
2019-06-27T08:10:28.871Z,63.67
2019-06-27T08:11:28.873Z,63.89
2019-06-27T08:12:28.876Z,60.51
2019-06-27T08:13:28.996Z,59.45
2019-06-27T08:14:28.907Z,59.16
2019-06-27T08:15:28.884Z,59.35
2019-06-27T08:16:28.881Z,59.35
2019-06-27T08:17:28.886Z,58.42
2019-06-27T08:18:28.936Z,58.70
2019-06-27T08:19:28.892Z,56.68
2019-06-27T08:20:28.893Z,56.20
2019-06-27T08:21:28.910Z,56.58
2019-06-27T08:22:28.898Z,56.48
2019-06-27T08:23:41.013Z,57.26
2019-06-27T08:24:28.905Z,57.45
2019-06-27T08:25:28.906Z,56.87
2019-06-27T08:26:28.909Z,56.29
2019-06-27T08:27:29.166Z,56.96
2019-06-27T08:28:28.913Z,56.77
2019-06-27T08:29:28.914Z,57.26
2019-06-27T08:30:28.910Z,56.29
2019-06-27T08:31:28.931Z,56.58
2019-06-27T08:32:28.920Z,55.47
2019-06-27T08:33:28.929Z,53.41
2019-06-27T08:34:28.974Z,50.67
2019-06-27T08:35:28.930Z,48.30
2019-06-27T08:36:28.930Z,46.89
2019-06-27T08:37:28.935Z,44.58
2019-06-27T08:38:28.935Z,43.61
2019-06-27T08:39:28.938Z,43.92
2019-06-27T08:40:28.985Z,42.00
2019-06-27T08:41:28.943Z,40.08
2019-06-27T08:42:28.955Z,39.41
2019-06-27T08:43:28.971Z,37.60
2019-06-27T08:44:29.462Z,36.35
2019-06-27T08:45:28.967Z,35.61
2019-06-27T08:46:29.952Z,34.24
2019-06-27T08:47:28.976Z,33.87
2019-06-27T08:48:29.035Z,32.58
2019-06-27T08:49:28.988Z,33.73
2019-06-27T08:50:28.998Z,34.22
2019-06-27T08:51:28.998Z,34.22
2019-06-27T08:52:29.010Z,34.14
2019-06-27T08:53:29.003Z,33.56
2019-06-27T08:54:29.016Z,33.95
2019-06-27T08:55:29.029Z,34.47
2019-06-27T08:56:29.024Z,34.00
2019-06-27T08:57:29.161Z,33.17
2019-06-27T08:58:29.635Z,31.83
2019-06-27T08:59:29.334Z,30.49
2019-06-27T09:00:29.048Z,30.12
2019-06-27T09:01:29.051Z,29.64
2019-06-27T09:02:29.065Z,29.27
2019-06-27T09:03:29.065Z,27.22
2019-06-27T09:04:29.070Z,24.97
2019-06-27T09:05:29.087Z,24.38
2019-06-27T09:06:29.085Z,24.18
2019-06-27T09:07:29.098Z,25.18
2019-06-27T09:08:29.098Z,24.19
2019-06-27T09:09:29.106Z,24.01
2019-06-27T09:10:29.113Z,24.41
2019-06-27T09:11:29.422Z,22.45
2019-06-27T09:12:29.178Z,22.15
2019-06-27T09:13:29.137Z,21.66
2019-06-27T09:14:29.142Z,21.97
2019-06-27T09:15:29.149Z,21.47
2019-06-27T09:16:29.160Z,21.10
2019-06-27T09:17:29.165Z,22.19
2019-06-27T09:18:29.171Z,22.20
2019-06-27T09:19:29.180Z,21.81
2019-06-27T09:20:29.192Z,19.54
2019-06-27T09:21:29.207Z,19.13
2019-06-27T09:22:29.204Z,19.21
2019-06-27T09:23:29.213Z,20.09
2019-06-27T09:24:29.220Z,21.07
2019-06-27T09:25:29.231Z,21.18
2019-06-27T09:26:29.245Z,21.08
2019-06-27T09:27:29.349Z,21.19
2019-06-27T09:28:29.254Z,21.29
2019-06-27T09:29:31.152Z,21.29
2019-06-27T09:30:29.288Z,21.20
2019-06-27T09:31:29.280Z,21.02
2019-06-27T09:32:29.287Z,20.54
2019-06-27T09:33:29.298Z,20.36
2019-06-27T09:34:29.301Z,19.87
2019-06-27T09:35:29.313Z,19.09
2019-06-27T09:36:29.322Z,18.01
2019-06-27T09:37:29.343Z,18.01
2019-06-27T09:38:29.338Z,18.42
2019-06-27T09:39:29.351Z,17.93
2019-06-27T09:40:29.357Z,17.35
2019-06-27T09:41:29.366Z,16.76
2019-06-27T09:42:29.375Z,14.98
2019-06-27T09:43:29.391Z,15.97
2019-06-27T09:44:29.402Z,15.39
2019-06-27T09:45:29.406Z,13.90
2019-06-27T09:46:29.416Z,13.90
2019-06-27T09:47:29.426Z,13.89
2019-06-27T09:48:29.439Z,13.29
2019-06-27T09:49:33.158Z,13.59
2019-06-27T09:50:31.160Z,13.39
2019-06-27T09:51:30.462Z,13.39
2019-06-27T09:52:29.477Z,13.50
2019-06-27T09:53:31.160Z,12.90
2019-06-27T09:54:31.160Z,13.20
2019-06-27T09:55:29.505Z,13.49
2019-06-27T09:56:29.524Z,13.49
2019-06-27T09:57:29.525Z,12.11
2019-06-27T09:58:29.545Z,11.82
2019-06-27T09:59:29.545Z,11.32
2019-06-27T10:00:33.169Z,10.63
2019-06-27T10:01:29.593Z,9.94
2019-06-27T10:02:41.060Z,10.04
2019-06-27T10:03:29.605Z,10.34
2019-06-27T10:04:29.605Z,8.95
2019-06-27T10:05:29.604Z,9.26
2019-06-27T10:06:29.689Z,9.26
2019-06-27T10:07:29.634Z,10.05
2019-06-27T10:08:29.646Z,9.66
2019-06-27T10:09:31.190Z,9.86
2019-06-27T10:10:29.667Z,8.97
2019-06-27T10:11:29.675Z,9.27
2019-06-27T10:12:41.817Z,9.27
2019-06-27T10:13:29.701Z,8.87
2019-06-27T10:14:29.714Z,9.27
2019-06-27T10:15:31.698Z,8.96
2019-06-27T10:16:31.676Z,9.76
2019-06-27T10:17:29.749Z,10.15
2019-06-27T10:18:29.758Z,10.06
2019-06-27T10:19:31.875Z,9.86
2019-06-27T10:20:29.804Z,9.86
2019-06-27T10:21:30.010Z,9.46
2019-06-27T10:22:29.815Z,9.56
2019-06-27T10:23:29.831Z,10.06
2019-06-27T10:24:29.864Z,9.27
2019-06-27T10:25:29.843Z,8.47
2019-06-27T10:26:29.856Z,7.56
2019-06-27T10:27:29.870Z,8.25
2019-06-27T10:28:29.896Z,8.45
2019-06-27T10:29:29.901Z,9.34
2019-06-27T10:30:29.913Z,9.24
2019-06-27T10:31:29.920Z,9.64
2019-06-27T10:32:29.938Z,9.06
2019-06-27T10:33:29.945Z,9.06
2019-06-27T10:34:29.967Z,8.47
2019-06-27T10:35:29.972Z,8.17
2019-06-27T10:36:30.003Z,7.98
2019-06-27T10:37:29.997Z,7.39
2019-06-27T10:38:30.007Z,6.68
2019-06-27T10:39:30.020Z,6.68
2019-06-27T10:40:30.037Z,6.18
2019-06-27T10:41:30.049Z,6.78
2019-06-27T10:42:30.062Z,7.28
2019-06-27T10:43:30.118Z,7.28
2019-06-27T10:44:30.091Z,7.57
2019-06-27T10:45:30.105Z,8.06
2019-06-27T10:46:30.527Z,8.16
2019-06-27T10:47:30.190Z,8.16
2019-06-27T10:48:30.576Z,8.15
2019-06-27T10:49:30.163Z,7.96
2019-06-27T10:50:30.170Z,8.06
2019-06-27T10:51:30.179Z,8.26
2019-06-27T10:52:30.194Z,7.47
2019-06-27T10:53:30.211Z,7.57
2019-06-27T10:54:30.221Z,6.77
2019-06-27T10:55:30.255Z,6.97
2019-06-27T10:56:30.358Z,7.07
2019-06-27T10:57:31.432Z,7.28
2019-06-27T10:58:30.275Z,6.78
2019-06-27T10:59:30.286Z,6.79
2019-06-27T11:00:30.303Z,6.89
2019-06-27T11:01:30.316Z,6.79
2019-06-27T11:02:30.384Z,6.49
2019-06-27T11:03:30.343Z,6.40
2019-06-27T11:04:30.356Z,6.49
2019-06-27T11:05:30.374Z,6.30
2019-06-27T11:06:30.384Z,5.50
2019-06-27T11:07:30.400Z,5.69
2019-06-27T11:08:30.421Z,5.60
2019-06-27T11:09:30.511Z,5.60
2019-06-27T11:10:30.492Z,5.60
2019-06-27T11:11:30.469Z,6.00
2019-06-27T11:12:30.532Z,5.50
2019-06-27T11:13:30.490Z,6.20
2019-06-27T11:14:30.551Z,6.30
2019-06-27T11:15:30.539Z,6.00
2019-06-27T11:16:30.535Z,6.50
2019-06-27T11:17:30.580Z,6.00
2019-06-27T11:18:30.562Z,5.90
2019-06-27T11:19:30.633Z,5.51
2019-06-27T11:20:30.589Z,5.91
2019-06-27T11:21:30.611Z,5.90
2019-06-27T11:22:30.618Z,6.10
2019-06-27T11:23:30.645Z,5.51
2019-06-27T11:24:30.661Z,5.21
2019-06-27T11:25:30.712Z,5.40
2019-06-27T11:26:30.923Z,5.60
2019-06-27T11:27:30.736Z,5.30
2019-06-27T11:28:30.768Z,5.50
2019-06-27T11:29:30.763Z,5.50
2019-06-27T11:30:30.804Z,6.00
2019-06-27T11:31:30.769Z,5.50
2019-06-27T11:32:30.833Z,6.10
2019-06-27T11:33:33.074Z,6.30
2019-06-27T11:34:34.711Z,6.30
2019-06-27T11:35:30.898Z,6.01
2019-06-27T11:36:30.864Z,5.50
2019-06-27T11:37:30.883Z,6.21
2019-06-27T11:38:30.884Z,6.21
2019-06-27T11:39:30.913Z,6.31
2019-06-27T11:40:30.917Z,6.21
2019-06-27T11:41:30.933Z,5.51
2019-06-27T11:42:30.957Z,6.01
2019-06-27T11:43:30.978Z,6.30
2019-06-27T11:44:30.976Z,6.40
2019-06-27T11:45:30.996Z,6.80
2019-06-27T11:46:31.010Z,6.80
2019-06-27T11:47:34.583Z,7.10
2019-06-27T11:48:31.130Z,7.31
2019-06-27T11:49:31.057Z,6.71
2019-06-27T11:50:32.341Z,6.31
2019-06-27T11:51:31.147Z,6.32
2019-06-27T11:52:31.111Z,6.41
2019-06-27T11:53:31.125Z,6.41
2019-06-27T11:54:31.170Z,6.51
2019-06-27T11:55:31.162Z,6.81
2019-06-27T11:56:31.180Z,6.81
2019-06-27T11:57:31.189Z,7.11
2019-06-27T11:58:31.209Z,7.01
2019-06-27T11:59:31.230Z,7.51
2019-06-27T12:00:31.244Z,7.71
2019-06-27T12:01:31.264Z,7.51
2019-06-27T12:02:31.289Z,7.72
2019-06-27T12:03:31.293Z,8.32
2019-06-27T12:04:32.260Z,8.41
2019-06-27T12:05:31.328Z,8.61
2019-06-27T12:06:31.360Z,8.50
2019-06-27T12:07:31.402Z,9.11
2019-06-27T12:08:31.376Z,8.50
2019-06-27T12:09:31.423Z,8.50
2019-06-27T12:10:31.434Z,8.41
2019-06-27T12:11:31.442Z,8.51
2019-06-27T12:12:31.444Z,8.42
2019-06-27T12:13:31.462Z,8.72
2019-06-27T12:14:31.479Z,8.51
2019-06-27T12:15:31.496Z,8.81
2019-06-27T12:16:31.523Z,9.29
2019-06-27T12:17:31.532Z,9.78
2019-06-27T12:18:31.544Z,10.28
2019-06-27T12:19:31.561Z,10.38
2019-06-27T12:20:31.582Z,10.18
2019-06-27T12:21:31.604Z,10.97
2019-06-27T12:22:31.612Z,10.97
2019-06-27T12:23:31.659Z,10.77
2019-06-27T12:24:31.646Z,11.08
2019-06-27T12:25:31.663Z,10.28
2019-06-27T12:26:31.683Z,10.49
2019-06-27T12:27:31.697Z,10.30
2019-06-27T12:28:31.712Z,10.09
2019-06-27T12:29:31.729Z,10.00
2019-06-27T12:30:31.749Z,9.60
2019-06-27T12:31:31.763Z,9.10
2019-06-27T12:32:31.775Z,8.60
2019-06-27T12:33:31.828Z,8.69
2019-06-27T12:34:31.815Z,9.38
2019-06-27T12:35:32.723Z,10.06
2019-06-27T12:36:31.844Z,9.77
2019-06-27T12:37:31.874Z,9.78
2019-06-27T12:38:31.877Z,9.78
2019-06-27T12:39:31.902Z,9.49
2019-06-27T12:40:31.911Z,10.39
2019-06-27T12:41:31.936Z,10.10
2019-06-27T12:42:33.038Z,9.61
2019-06-27T12:43:31.958Z,9.41
2019-06-27T12:44:31.971Z,8.21
2019-06-27T12:45:31.996Z,7.61
2019-06-27T12:46:32.008Z,7.20
2019-06-27T12:47:32.034Z,8.59
2019-06-27T12:48:32.041Z,8.58
2019-06-27T12:49:50.050Z,9.17
2019-06-27T12:50:32.077Z,9.27
2019-06-27T12:51:32.094Z,10.15
2019-06-27T12:52:32.112Z,11.22
2019-06-27T12:53:32.128Z,11.71
2019-06-27T12:54:32.137Z,12.31
2019-06-27T12:55:32.159Z,12.21
2019-06-27T12:56:32.174Z,12.41
2019-06-27T12:57:32.187Z,11.62